DLH1JH EDDM-EDDH
Flight info
| Callsign | DLH1JH |
|---|---|
| Flight time | 1h 2m |
| Altitude | 36000 |
| Route | INPUD2N INPUD Y102 UPALA M726 NARUS DCT ABGUS DCT DIRBO/N0384F230 T902 RARUP RARUP6A |
| Aircraft | A321/M-SDE3FGHIRWY/LB1 |
Departure
| Time | 2026-05-07 17:15 |
|---|---|
| Airport | Munich Airport (EDDM) |
Arrival
| Time | 2026-05-07 18:18 |
|---|---|
| Airport | Hamburg Helmut Schmidt Airport (EDDH) |
| Time | Latitude | Longitude | Altitude | Speed | Heading |
|---|---|---|---|---|---|
| 2026-05-07 16:28 | 48.35499 | 11.79303 | 1516 ft | 0 kts | 263° |
| 2026-05-07 16:43 | 48.35499 | 11.79304 | 1516 ft | 0 kts | 263° |
| 2026-05-07 16:56 | 48.35501 | 11.79338 | 1482 ft | 4 kts | 263° |
| 2026-05-07 16:56 | 48.35505 | 11.79411 | 1471 ft | 4 kts | 283° |
| 2026-05-07 16:57 | 48.35493 | 11.79442 | 1473 ft | 4 kts | 333° |
| 2026-05-07 16:57 | 48.35470 | 11.79451 | 1476 ft | 4 kts | 353° |
| 2026-05-07 16:57 | 48.35456 | 11.79454 | 1482 ft | 0 kts | 353° |
| 2026-05-07 17:00 | 48.35471 | 11.79451 | 1481 ft | 6 kts | 353° |
| 2026-05-07 17:01 | 48.35548 | 11.79437 | 1485 ft | 16 kts | 353° |
| 2026-05-07 17:01 | 48.35666 | 11.79417 | 1481 ft | 18 kts | 353° |
| 2026-05-07 17:01 | 48.35790 | 11.79396 | 1473 ft | 18 kts | 353° |
| 2026-05-07 17:01 | 48.35900 | 11.79371 | 1479 ft | 12 kts | 339° |
| 2026-05-07 17:02 | 48.35977 | 11.79336 | 1475 ft | 6 kts | 353° |
| 2026-05-07 17:02 | 48.35979 | 11.79336 | 1476 ft | 0 kts | 353° |
| 2026-05-07 17:03 | 48.35992 | 11.79333 | 1479 ft | 5 kts | 353° |
| 2026-05-07 17:03 | 48.36053 | 11.79322 | 1478 ft | 12 kts | 353° |
| 2026-05-07 17:03 | 48.36151 | 11.79306 | 1473 ft | 14 kts | 357° |
| 2026-05-07 17:04 | 48.36208 | 11.79408 | 1475 ft | 17 kts | 81° |
| 2026-05-07 17:04 | 48.36223 | 11.79594 | 1472 ft | 19 kts | 83° |
| 2026-05-07 17:04 | 48.36234 | 11.79739 | 1485 ft | 23 kts | 83° |
| 2026-05-07 17:04 | 48.36259 | 11.80066 | 1485 ft | 24 kts | 83° |
| 2026-05-07 17:05 | 48.36279 | 11.80319 | 1485 ft | 25 kts | 83° |
| 2026-05-07 17:05 | 48.36299 | 11.80587 | 1485 ft | 26 kts | 83° |
| 2026-05-07 17:05 | 48.36320 | 11.80863 | 1485 ft | 27 kts | 83° |
| 2026-05-07 17:05 | 48.36342 | 11.81140 | 1481 ft | 27 kts | 83° |
| 2026-05-07 17:06 | 48.36364 | 11.81425 | 1485 ft | 26 kts | 83° |
| 2026-05-07 17:06 | 48.36383 | 11.81675 | 1480 ft | 24 kts | 83° |
| 2026-05-07 17:06 | 48.36399 | 11.81888 | 1485 ft | 12 kts | 89° |
| 2026-05-07 17:06 | 48.36421 | 11.81996 | 1471 ft | 12 kts | 26° |
| 2026-05-07 17:07 | 48.36505 | 11.81992 | 1485 ft | 13 kts | 354° |
| 2026-05-07 17:07 | 48.36556 | 11.81984 | 1485 ft | 0 kts | 353° |
| 2026-05-07 17:12 | 48.36557 | 11.81983 | 1485 ft | 0 kts | 353° |
| 2026-05-07 17:13 | 48.36568 | 11.81982 | 1478 ft | 3 kts | 353° |
| 2026-05-07 17:13 | 48.36623 | 11.81972 | 1482 ft | 11 kts | 353° |
| 2026-05-07 17:13 | 48.36671 | 11.81891 | 1480 ft | 12 kts | 267° |
| 2026-05-07 17:13 | 48.36670 | 11.81871 | 1482 ft | 0 kts | 263° |
| 2026-05-07 17:14 | 48.36669 | 11.81864 | 1485 ft | 5 kts | 263° |
| 2026-05-07 17:15 | 48.36644 | 11.81527 | 1480 ft | 67 kts | 263° |
| 2026-05-07 17:15 | 48.36566 | 11.80500 | 1473 ft | 129 kts | 263° |
| 2026-05-07 17:15 | 48.36445 | 11.78913 | 1579 ft | 167 kts | 264° |
| 2026-05-07 17:15 | 48.36332 | 11.77257 | 2371 ft | 158 kts | 265° |
| 2026-05-07 17:16 | 48.36206 | 11.75621 | 2984 ft | 164 kts | 263° |
| 2026-05-07 17:16 | 48.36072 | 11.73790 | 3294 ft | 183 kts | 263° |
| 2026-05-07 17:16 | 48.35923 | 11.71822 | 3535 ft | 201 kts | 263° |
| 2026-05-07 17:16 | 48.35753 | 11.69677 | 3933 ft | 211 kts | 262° |
| 2026-05-07 17:17 | 48.35738 | 11.67472 | 4544 ft | 216 kts | 284° |
| 2026-05-07 17:17 | 48.36636 | 11.65632 | 4991 ft | 236 kts | 322° |
| 2026-05-07 17:17 | 48.38241 | 11.64623 | 5313 ft | 262 kts | 341° |
| 2026-05-07 17:17 | 48.40061 | 11.64102 | 5996 ft | 269 kts | 347° |
| 2026-05-07 17:18 | 48.41939 | 11.63732 | 6684 ft | 274 kts | 348° |
| 2026-05-07 17:18 | 48.43841 | 11.63357 | 7440 ft | 278 kts | 347° |
| 2026-05-07 17:18 | 48.45727 | 11.62719 | 8135 ft | 277 kts | 336° |
| 2026-05-07 17:18 | 48.47557 | 11.61756 | 8864 ft | 280 kts | 336° |
| 2026-05-07 17:19 | 48.49410 | 11.60781 | 9564 ft | 284 kts | 336° |
| 2026-05-07 17:19 | 48.51291 | 11.59788 | 10189 ft | 290 kts | 336° |
| 2026-05-07 17:19 | 48.53261 | 11.58743 | 10352 ft | 311 kts | 337° |
| 2026-05-07 17:19 | 48.55368 | 11.57620 | 10488 ft | 331 kts | 337° |
| 2026-05-07 17:20 | 48.57583 | 11.56445 | 10865 ft | 341 kts | 338° |
| 2026-05-07 17:20 | 48.59836 | 11.55257 | 11435 ft | 345 kts | 338° |
| 2026-05-07 17:20 | 48.62118 | 11.54055 | 12019 ft | 349 kts | 337° |
| 2026-05-07 17:20 | 48.64417 | 11.52839 | 12594 ft | 352 kts | 337° |
| 2026-05-07 17:21 | 48.66742 | 11.51602 | 13173 ft | 356 kts | 337° |
| 2026-05-07 17:21 | 48.69084 | 11.50354 | 13776 ft | 359 kts | 337° |
| 2026-05-07 17:21 | 48.71455 | 11.49090 | 14302 ft | 363 kts | 337° |
| 2026-05-07 17:21 | 48.73847 | 11.47816 | 14817 ft | 366 kts | 338° |
| 2026-05-07 17:22 | 48.76259 | 11.46528 | 15309 ft | 370 kts | 338° |
| 2026-05-07 17:22 | 48.78698 | 11.45222 | 15810 ft | 373 kts | 338° |
| 2026-05-07 17:22 | 48.81158 | 11.43905 | 16321 ft | 376 kts | 338° |
| 2026-05-07 17:22 | 48.83634 | 11.42578 | 16876 ft | 378 kts | 338° |
| 2026-05-07 17:23 | 48.86081 | 11.41267 | 17509 ft | 378 kts | 338° |
| 2026-05-07 17:23 | 48.88570 | 11.39933 | 18051 ft | 380 kts | 338° |
| 2026-05-07 17:23 | 48.91070 | 11.38588 | 18529 ft | 383 kts | 338° |
| 2026-05-07 17:23 | 48.93588 | 11.37233 | 18987 ft | 385 kts | 338° |
| 2026-05-07 17:24 | 48.96121 | 11.35866 | 19441 ft | 387 kts | 338° |
| 2026-05-07 17:24 | 48.98666 | 11.34490 | 19858 ft | 390 kts | 338° |
| 2026-05-07 17:24 | 49.01235 | 11.33104 | 20288 ft | 393 kts | 338° |
| 2026-05-07 17:24 | 49.03818 | 11.31709 | 20720 ft | 395 kts | 338° |
| 2026-05-07 17:25 | 49.06417 | 11.30304 | 21142 ft | 397 kts | 338° |
| 2026-05-07 17:25 | 49.09026 | 11.28892 | 21573 ft | 400 kts | 338° |
| 2026-05-07 17:25 | 49.11658 | 11.27463 | 21993 ft | 402 kts | 338° |
| 2026-05-07 17:25 | 49.14299 | 11.26027 | 22413 ft | 404 kts | 338° |
| 2026-05-07 17:26 | 49.16954 | 11.24586 | 22823 ft | 406 kts | 338° |
| 2026-05-07 17:26 | 49.19635 | 11.23187 | 23224 ft | 409 kts | 342° |
| 2026-05-07 17:26 | 49.22407 | 11.22322 | 23451 ft | 418 kts | 352° |
| 2026-05-07 17:26 | 49.25381 | 11.22151 | 23617 ft | 426 kts | 360° |
| 2026-05-07 17:27 | 49.28313 | 11.22191 | 23896 ft | 429 kts | 359° |
| 2026-05-07 17:27 | 49.31309 | 11.22223 | 24232 ft | 432 kts | 359° |
| 2026-05-07 17:27 | 49.34330 | 11.22253 | 24594 ft | 434 kts | 359° |
| 2026-05-07 17:27 | 49.37356 | 11.22283 | 24951 ft | 437 kts | 359° |
| 2026-05-07 17:28 | 49.40405 | 11.22308 | 25284 ft | 439 kts | 359° |
| 2026-05-07 17:28 | 49.43466 | 11.22328 | 25635 ft | 441 kts | 359° |
| 2026-05-07 17:28 | 49.46515 | 11.22347 | 26169 ft | 437 kts | 359° |
| 2026-05-07 17:28 | 49.49559 | 11.22371 | 26512 ft | 438 kts | 359° |
| 2026-05-07 17:29 | 49.52614 | 11.22399 | 26830 ft | 440 kts | 359° |
| 2026-05-07 17:29 | 49.55679 | 11.22428 | 27144 ft | 441 kts | 359° |
| 2026-05-07 17:29 | 49.58757 | 11.22447 | 27413 ft | 444 kts | 359° |
| 2026-05-07 17:29 | 49.61851 | 11.22454 | 27715 ft | 446 kts | 359° |
| 2026-05-07 17:30 | 49.64960 | 11.22452 | 28019 ft | 448 kts | 359° |
| 2026-05-07 17:30 | 49.68087 | 11.22449 | 28232 ft | 452 kts | 360° |
| 2026-05-07 17:30 | 49.71241 | 11.22445 | 28483 ft | 454 kts | 360° |
| 2026-05-07 17:30 | 49.74406 | 11.22444 | 28778 ft | 456 kts | 360° |
| 2026-05-07 17:31 | 49.77596 | 11.22448 | 29071 ft | 459 kts | 360° |
| 2026-05-07 17:31 | 49.80791 | 11.22463 | 29356 ft | 460 kts | 0° |
| 2026-05-07 17:31 | 49.83999 | 11.22489 | 29610 ft | 462 kts | 0° |
| 2026-05-07 17:31 | 49.87222 | 11.22520 | 29863 ft | 464 kts | 0° |
| 2026-05-07 17:32 | 49.90456 | 11.22545 | 30107 ft | 465 kts | 0° |
| 2026-05-07 17:32 | 49.93702 | 11.22563 | 30295 ft | 467 kts | 0° |
| 2026-05-07 17:32 | 49.96954 | 11.22580 | 30477 ft | 469 kts | 0° |
| 2026-05-07 17:32 | 50.00216 | 11.22598 | 30705 ft | 469 kts | 0° |
| 2026-05-07 17:33 | 50.03486 | 11.22613 | 30940 ft | 469 kts | 0° |
| 2026-05-07 17:33 | 50.06753 | 11.22630 | 31191 ft | 469 kts | 360° |
| 2026-05-07 17:33 | 50.10022 | 11.22649 | 31454 ft | 469 kts | 360° |
| 2026-05-07 17:33 | 50.13238 | 11.22671 | 31661 ft | 470 kts | 0° |
| 2026-05-07 17:34 | 50.16514 | 11.22694 | 31854 ft | 471 kts | 360° |
| 2026-05-07 17:34 | 50.19798 | 11.22716 | 32075 ft | 471 kts | 360° |
| 2026-05-07 17:34 | 50.23074 | 11.22736 | 32328 ft | 471 kts | 359° |
| 2026-05-07 17:34 | 50.26350 | 11.22759 | 32547 ft | 471 kts | 359° |
| 2026-05-07 17:35 | 50.29631 | 11.22779 | 32778 ft | 472 kts | 359° |
| 2026-05-07 17:35 | 50.32912 | 11.22793 | 32992 ft | 472 kts | 359° |
| 2026-05-07 17:35 | 50.36192 | 11.22758 | 33236 ft | 471 kts | 355° |
| 2026-05-07 17:35 | 50.39452 | 11.22306 | 33500 ft | 470 kts | 353° |
| 2026-05-07 17:36 | 50.42703 | 11.21812 | 33774 ft | 469 kts | 353° |
| 2026-05-07 17:36 | 50.45945 | 11.21322 | 34015 ft | 469 kts | 353° |
| 2026-05-07 17:36 | 50.49191 | 11.20836 | 34211 ft | 469 kts | 353° |
| 2026-05-07 17:36 | 50.52451 | 11.20373 | 34402 ft | 469 kts | 353° |
| 2026-05-07 17:37 | 50.55694 | 11.19975 | 34629 ft | 467 kts | 354° |
| 2026-05-07 17:37 | 50.58934 | 11.19624 | 34842 ft | 466 kts | 355° |
| 2026-05-07 17:37 | 50.62169 | 11.19297 | 35033 ft | 466 kts | 355° |
| 2026-05-07 17:37 | 50.65401 | 11.18974 | 35205 ft | 465 kts | 355° |
| 2026-05-07 17:38 | 50.68631 | 11.18643 | 35375 ft | 465 kts | 355° |
| 2026-05-07 17:38 | 50.71889 | 11.18301 | 35544 ft | 465 kts | 354° |
| 2026-05-07 17:38 | 50.75089 | 11.17952 | 35706 ft | 465 kts | 354° |
| 2026-05-07 17:38 | 50.78274 | 11.17595 | 35884 ft | 465 kts | 354° |
| 2026-05-07 17:39 | 50.84724 | 11.16859 | 35967 ft | 465 kts | 354° |
| 2026-05-07 17:39 | 50.91185 | 11.16130 | 35971 ft | 468 kts | 354° |
| 2026-05-07 17:40 | 50.97736 | 11.15411 | 35974 ft | 475 kts | 355° |
| 2026-05-07 17:40 | 51.04366 | 11.14685 | 35977 ft | 480 kts | 354° |
| 2026-05-07 17:41 | 51.11044 | 11.13934 | 35973 ft | 482 kts | 354° |
| 2026-05-07 17:41 | 51.17732 | 11.13181 | 35972 ft | 481 kts | 355° |
| 2026-05-07 17:42 | 51.21039 | 11.12814 | 35969 ft | 470 kts | 355° |
| 2026-05-07 17:42 | 51.24271 | 11.12456 | 35975 ft | 462 kts | 354° |
| 2026-05-07 17:42 | 51.30648 | 11.11737 | 35981 ft | 458 kts | 354° |
| 2026-05-07 17:43 | 51.37009 | 11.11018 | 35980 ft | 458 kts | 354° |
| 2026-05-07 17:43 | 51.43365 | 11.10299 | 35986 ft | 458 kts | 354° |
| 2026-05-07 17:44 | 51.49725 | 11.09582 | 36001 ft | 457 kts | 355° |
| 2026-05-07 17:44 | 51.56073 | 11.08869 | 36006 ft | 457 kts | 355° |
| 2026-05-07 17:45 | 51.62414 | 11.08140 | 36010 ft | 457 kts | 354° |
| 2026-05-07 17:45 | 51.68764 | 11.07404 | 36017 ft | 457 kts | 355° |
| 2026-05-07 17:46 | 51.75108 | 11.06681 | 36017 ft | 457 kts | 355° |
| 2026-05-07 17:46 | 51.81449 | 11.05952 | 36020 ft | 457 kts | 354° |
| 2026-05-07 17:47 | 51.84617 | 11.05587 | 35726 ft | 455 kts | 355° |
| 2026-05-07 17:47 | 51.87772 | 11.05199 | 35142 ft | 454 kts | 353° |
| 2026-05-07 17:47 | 51.90912 | 11.04665 | 34558 ft | 454 kts | 352° |
| 2026-05-07 17:47 | 51.94002 | 11.04012 | 33987 ft | 453 kts | 351° |
| 2026-05-07 17:48 | 51.97115 | 11.03283 | 33293 ft | 452 kts | 351° |
| 2026-05-07 17:48 | 52.00228 | 11.02533 | 32557 ft | 453 kts | 351° |
| 2026-05-07 17:48 | 52.03349 | 11.01798 | 31825 ft | 453 kts | 351° |
| 2026-05-07 17:48 | 52.06476 | 11.01093 | 31095 ft | 454 kts | 352° |
| 2026-05-07 17:49 | 52.09609 | 11.00415 | 30371 ft | 455 kts | 352° |
| 2026-05-07 17:49 | 52.12749 | 10.99752 | 29525 ft | 456 kts | 352° |
| 2026-05-07 17:49 | 52.15900 | 10.99093 | 28602 ft | 457 kts | 352° |
| 2026-05-07 17:49 | 52.19035 | 10.98431 | 28151 ft | 449 kts | 352° |
| 2026-05-07 17:50 | 52.22083 | 10.97781 | 27977 ft | 434 kts | 352° |
| 2026-05-07 17:50 | 52.25053 | 10.97145 | 27558 ft | 427 kts | 352° |
| 2026-05-07 17:50 | 52.27979 | 10.96512 | 27033 ft | 422 kts | 352° |
| 2026-05-07 17:50 | 52.30875 | 10.95883 | 26489 ft | 418 kts | 352° |
| 2026-05-07 17:51 | 52.33748 | 10.95264 | 25943 ft | 415 kts | 351° |
| 2026-05-07 17:51 | 52.36592 | 10.94650 | 25444 ft | 410 kts | 351° |
| 2026-05-07 17:51 | 52.39409 | 10.94039 | 24985 ft | 406 kts | 351° |
| 2026-05-07 17:51 | 52.42198 | 10.93432 | 24457 ft | 404 kts | 351° |
| 2026-05-07 17:52 | 52.44973 | 10.92828 | 23954 ft | 400 kts | 351° |
| 2026-05-07 17:52 | 52.47719 | 10.92231 | 23453 ft | 397 kts | 351° |
| 2026-05-07 17:52 | 52.50450 | 10.91637 | 22876 ft | 394 kts | 351° |
| 2026-05-07 17:52 | 52.53163 | 10.91045 | 22295 ft | 392 kts | 351° |
| 2026-05-07 17:53 | 52.55853 | 10.90459 | 21756 ft | 388 kts | 351° |
| 2026-05-07 17:53 | 52.58517 | 10.89874 | 21220 ft | 385 kts | 351° |
| 2026-05-07 17:53 | 52.61168 | 10.89293 | 20684 ft | 383 kts | 351° |
| 2026-05-07 17:53 | 52.63798 | 10.88712 | 20158 ft | 380 kts | 352° |
| 2026-05-07 17:54 | 52.66401 | 10.88133 | 19667 ft | 376 kts | 351° |
| 2026-05-07 17:54 | 52.68952 | 10.87565 | 19134 ft | 374 kts | 350° |
| 2026-05-07 17:54 | 52.71519 | 10.86997 | 18607 ft | 372 kts | 351° |
| 2026-05-07 17:54 | 52.74071 | 10.86435 | 18088 ft | 368 kts | 352° |
| 2026-05-07 17:55 | 52.76602 | 10.85881 | 17568 ft | 365 kts | 351° |
| 2026-05-07 17:55 | 52.79103 | 10.85335 | 17054 ft | 360 kts | 350° |
| 2026-05-07 17:55 | 52.81577 | 10.84789 | 16521 ft | 357 kts | 351° |
| 2026-05-07 17:55 | 52.84028 | 10.84246 | 16007 ft | 354 kts | 351° |
| 2026-05-07 17:56 | 52.86459 | 10.83731 | 15494 ft | 351 kts | 351° |
| 2026-05-07 17:56 | 52.88875 | 10.83239 | 15000 ft | 348 kts | 352° |
| 2026-05-07 17:56 | 52.91273 | 10.82763 | 14528 ft | 346 kts | 351° |
| 2026-05-07 17:56 | 52.93647 | 10.82289 | 14065 ft | 343 kts | 352° |
| 2026-05-07 17:57 | 52.96009 | 10.81815 | 13580 ft | 340 kts | 352° |
| 2026-05-07 17:57 | 52.97562 | 10.81502 | 13255 ft | 339 kts | 352° |
| 2026-05-07 17:57 | 53.00669 | 10.80872 | 12564 ft | 334 kts | 352° |
| 2026-05-07 17:57 | 53.02970 | 10.80399 | 12049 ft | 331 kts | 353° |
| 2026-05-07 17:58 | 53.05244 | 10.79933 | 11548 ft | 328 kts | 353° |
| 2026-05-07 17:58 | 53.07506 | 10.79470 | 11058 ft | 326 kts | 353° |
| 2026-05-07 17:58 | 53.09744 | 10.79013 | 10572 ft | 323 kts | 354° |
| 2026-05-07 17:58 | 53.11963 | 10.78562 | 10145 ft | 319 kts | 354° |
| 2026-05-07 17:59 | 53.14148 | 10.78114 | 10022 ft | 311 kts | 353° |
| 2026-05-07 17:59 | 53.16243 | 10.77681 | 9969 ft | 295 kts | 354° |
| 2026-05-07 17:59 | 53.18244 | 10.77267 | 9740 ft | 286 kts | 355° |
| 2026-05-07 17:59 | 53.20203 | 10.76863 | 9377 ft | 282 kts | 354° |
| 2026-05-07 18:00 | 53.21491 | 10.76597 | 9109 ft | 281 kts | 355° |
| 2026-05-07 18:00 | 53.24072 | 10.76061 | 8602 ft | 278 kts | 355° |
| 2026-05-07 18:00 | 53.25954 | 10.75670 | 8238 ft | 275 kts | 355° |
| 2026-05-07 18:00 | 53.27846 | 10.75279 | 7860 ft | 273 kts | 355° |
| 2026-05-07 18:01 | 53.29720 | 10.74823 | 7486 ft | 272 kts | 347° |
| 2026-05-07 18:01 | 53.31468 | 10.73595 | 7123 ft | 272 kts | 335° |
| 2026-05-07 18:01 | 53.33137 | 10.72135 | 7044 ft | 272 kts | 335° |
| 2026-05-07 18:01 | 53.34812 | 10.70640 | 7050 ft | 274 kts | 334° |
| 2026-05-07 18:02 | 53.37631 | 10.68120 | 7054 ft | 274 kts | 334° |
| 2026-05-07 18:02 | 53.39316 | 10.66611 | 7054 ft | 275 kts | 334° |
| 2026-05-07 18:02 | 53.40933 | 10.64980 | 7052 ft | 277 kts | 321° |
| 2026-05-07 18:03 | 53.42108 | 10.62432 | 6824 ft | 279 kts | 299° |
| 2026-05-07 18:03 | 53.42910 | 10.59460 | 6433 ft | 280 kts | 295° |
| 2026-05-07 18:03 | 53.43649 | 10.56447 | 6030 ft | 279 kts | 295° |
| 2026-05-07 18:03 | 53.44377 | 10.53439 | 5610 ft | 278 kts | 294° |
| 2026-05-07 18:04 | 53.45108 | 10.50432 | 5208 ft | 278 kts | 294° |
| 2026-05-07 18:04 | 53.45832 | 10.47445 | 4958 ft | 275 kts | 294° |
| 2026-05-07 18:04 | 53.46560 | 10.44448 | 4952 ft | 279 kts | 295° |
| 2026-05-07 18:04 | 53.47293 | 10.41421 | 4952 ft | 280 kts | 294° |
| 2026-05-07 18:05 | 53.48028 | 10.38396 | 4954 ft | 280 kts | 294° |
| 2026-05-07 18:05 | 53.48761 | 10.35384 | 4951 ft | 279 kts | 294° |
| 2026-05-07 18:05 | 53.49498 | 10.32363 | 4957 ft | 279 kts | 294° |
| 2026-05-07 18:05 | 53.50231 | 10.29358 | 4958 ft | 278 kts | 294° |
| 2026-05-07 18:06 | 53.50689 | 10.26201 | 4954 ft | 281 kts | 271° |
| 2026-05-07 18:06 | 53.50297 | 10.23003 | 4960 ft | 282 kts | 248° |
| 2026-05-07 18:06 | 53.49520 | 10.19976 | 4955 ft | 282 kts | 245° |
| 2026-05-07 18:06 | 53.48703 | 10.16991 | 4956 ft | 282 kts | 244° |
| 2026-05-07 18:07 | 53.47876 | 10.13999 | 4955 ft | 282 kts | 244° |
| 2026-05-07 18:07 | 53.47047 | 10.11015 | 4952 ft | 282 kts | 244° |
| 2026-05-07 18:07 | 53.46219 | 10.08033 | 4955 ft | 282 kts | 244° |
| 2026-05-07 18:07 | 53.45386 | 10.05044 | 4953 ft | 282 kts | 244° |
| 2026-05-07 18:08 | 53.44554 | 10.02066 | 4954 ft | 282 kts | 244° |
| 2026-05-07 18:08 | 53.43722 | 9.99089 | 4954 ft | 282 kts | 244° |
| 2026-05-07 18:08 | 53.42889 | 9.96116 | 4955 ft | 282 kts | 244° |
| 2026-05-07 18:08 | 53.42056 | 9.93141 | 4950 ft | 282 kts | 244° |
| 2026-05-07 18:09 | 53.41225 | 9.90170 | 4906 ft | 281 kts | 244° |
| 2026-05-07 18:09 | 53.40431 | 9.87193 | 4525 ft | 280 kts | 251° |
| 2026-05-07 18:09 | 53.40242 | 9.83998 | 4139 ft | 276 kts | 281° |
| 2026-05-07 18:09 | 53.40787 | 9.80929 | 3690 ft | 275 kts | 293° |
| 2026-05-07 18:10 | 53.41489 | 9.77940 | 3291 ft | 276 kts | 294° |
| 2026-05-07 18:10 | 53.42199 | 9.75003 | 3101 ft | 267 kts | 294° |
| 2026-05-07 18:10 | 53.42882 | 9.72178 | 2981 ft | 256 kts | 294° |
| 2026-05-07 18:10 | 53.43534 | 9.69510 | 2955 ft | 238 kts | 294° |
| 2026-05-07 18:11 | 53.44376 | 9.67267 | 2949 ft | 222 kts | 319° |
| 2026-05-07 18:11 | 53.45678 | 9.66195 | 2954 ft | 201 kts | 2° |
| 2026-05-07 18:11 | 53.46859 | 9.66876 | 2957 ft | 169 kts | 43° |
| 2026-05-07 18:11 | 53.47676 | 9.68175 | 2952 ft | 158 kts | 49° |
| 2026-05-07 18:12 | 53.48411 | 9.69511 | 2953 ft | 154 kts | 52° |
| 2026-05-07 18:12 | 53.49111 | 9.70858 | 2956 ft | 153 kts | 52° |
| 2026-05-07 18:12 | 53.49800 | 9.72214 | 2956 ft | 152 kts | 53° |
| 2026-05-07 18:12 | 53.50476 | 9.73559 | 2956 ft | 153 kts | 53° |
| 2026-05-07 18:13 | 53.51167 | 9.74938 | 2956 ft | 152 kts | 53° |
| 2026-05-07 18:13 | 53.51849 | 9.76302 | 2955 ft | 153 kts | 53° |
| 2026-05-07 18:13 | 53.52566 | 9.77741 | 2898 ft | 160 kts | 52° |
| 2026-05-07 18:13 | 53.53256 | 9.79120 | 2761 ft | 153 kts | 53° |
| 2026-05-07 18:14 | 53.53932 | 9.80471 | 2573 ft | 149 kts | 53° |
| 2026-05-07 18:14 | 53.54590 | 9.81796 | 2387 ft | 146 kts | 51° |
| 2026-05-07 18:14 | 53.55238 | 9.83096 | 2157 ft | 144 kts | 53° |
| 2026-05-07 18:14 | 53.55873 | 9.84366 | 2009 ft | 136 kts | 52° |
| 2026-05-07 18:15 | 53.56467 | 9.85569 | 1832 ft | 139 kts | 53° |
| 2026-05-07 18:15 | 53.57087 | 9.86816 | 1636 ft | 144 kts | 51° |
| 2026-05-07 18:15 | 53.57738 | 9.88124 | 1421 ft | 148 kts | 52° |
| 2026-05-07 18:15 | 53.58393 | 9.89435 | 1184 ft | 147 kts | 51° |
| 2026-05-07 18:16 | 53.59042 | 9.90745 | 993 ft | 144 kts | 52° |
| 2026-05-07 18:16 | 53.59683 | 9.92034 | 791 ft | 144 kts | 53° |
| 2026-05-07 18:16 | 53.60317 | 9.93319 | 596 ft | 140 kts | 53° |
| 2026-05-07 18:16 | 53.60937 | 9.94567 | 402 ft | 139 kts | 53° |
| 2026-05-07 18:17 | 53.61561 | 9.95826 | 223 ft | 142 kts | 52° |
| 2026-05-07 18:17 | 53.62187 | 9.97101 | 52 ft | 139 kts | 53° |
| 2026-05-07 18:17 | 53.62734 | 9.98213 | 43 ft | 102 kts | 50° |
| 2026-05-07 18:17 | 53.63104 | 9.98959 | 46 ft | 71 kts | 50° |
| 2026-05-07 18:18 | 53.63291 | 9.99358 | 47 ft | 23 kts | 69° |
| 2026-05-07 18:18 | 53.63283 | 9.99600 | 46 ft | 16 kts | 101° |
| 2026-05-07 18:18 | 53.63276 | 9.99664 | 48 ft | 0 kts | 100° |
| 2026-05-07 18:19 | 53.63271 | 9.99698 | 48 ft | 8 kts | 108° |
| 2026-05-07 18:19 | 53.63221 | 9.99761 | 48 ft | 11 kts | 152° |
| 2026-05-07 18:20 | 53.63144 | 9.99828 | 48 ft | 13 kts | 153° |
| 2026-05-07 18:20 | 53.63058 | 9.99903 | 48 ft | 15 kts | 152° |
| 2026-05-07 18:20 | 53.63017 | 9.99938 | 48 ft | 0 kts | 152° |
| 2026-05-07 18:21 | 53.63003 | 9.99951 | 48 ft | 6 kts | 152° |
| 2026-05-07 18:22 | 53.62951 | 9.99996 | 48 ft | 10 kts | 153° |
| 2026-05-07 18:22 | 53.62907 | 10.00032 | 48 ft | 11 kts | 161° |
| 2026-05-07 18:22 | 53.62813 | 10.00098 | 48 ft | 9 kts | 153° |
| 2026-05-07 18:22 | 53.62784 | 10.00144 | 48 ft | 4 kts | 101° |
| 2026-05-07 18:23 | 53.62797 | 10.00206 | 46 ft | 7 kts | 63° |
| 2026-05-07 18:23 | 53.62806 | 10.00236 | 47 ft | 2 kts | 62° |
| 2026-05-07 18:23 | 53.62809 | 10.00246 | 48 ft | 0 kts | 63° |